sensor_id;sensor_type;location;lat;lon;timestamp;pressure;altitude;pressure_sealevel;temperature;humidity
77003;BME280;65939;50.060;14.288;2023-04-01T00:00:05;95589.81;;;9.24;82.76
77003;BME280;65939;50.060;14.288;2023-04-01T00:02:08;95596.03;;;9.23;83.05
77003;BME280;65939;50.060;14.288;2023-04-01T00:04:09;95610.84;;;9.23;82.74
77003;BME280;65939;50.060;14.288;2023-04-01T00:06:15;95594.59;;;9.21;83.14
77003;BME280;65939;50.060;14.288;2023-04-01T00:08:17;95592.00;;;9.21;83.10
77003;BME280;65939;50.060;14.288;2023-04-01T00:10:17;95604.59;;;9.17;83.15
77003;BME280;65939;50.060;14.288;2023-04-01T00:12:18;95602.00;;;9.17;82.92
77003;BME280;65939;50.060;14.288;2023-04-01T00:14:19;95595.97;;;9.17;82.81
77003;BME280;65939;50.060;14.288;2023-04-01T00:16:19;95599.59;;;9.16;82.68
77003;BME280;65939;50.060;14.288;2023-04-01T00:18:20;95597.16;;;9.14;82.84
77003;BME280;65939;50.060;14.288;2023-04-01T00:20:21;95598.94;;;9.14;82.86
77003;BME280;65939;50.060;14.288;2023-04-01T00:22:23;95603.19;;;9.15;82.60
77003;BME280;65939;50.060;14.288;2023-04-01T00:24:24;95591.34;;;9.12;82.37
77003;BME280;65939;50.060;14.288;2023-04-01T00:26:25;95600.16;;;9.11;83.27
77003;BME280;65939;50.060;14.288;2023-04-01T00:28:26;95598.72;;;9.08;83.36
77003;BME280;65939;50.060;14.288;2023-04-01T00:30:27;95593.88;;;9.05;83.39
77003;BME280;65939;50.060;14.288;2023-04-01T00:32:28;95591.66;;;9.02;83.36
77003;BME280;65939;50.060;14.288;2023-04-01T00:34:29;95588.03;;;8.97;82.95
77003;BME280;65939;50.060;14.288;2023-04-01T00:36:29;95590.78;;;8.95;83.64
77003;BME280;65939;50.060;14.288;2023-04-01T00:38:30;95596.56;;;8.91;83.33
77003;BME280;65939;50.060;14.288;2023-04-01T00:40:37;95590.94;;;8.87;83.67
77003;BME280;65939;50.060;14.288;2023-04-01T00:42:38;95593.28;;;8.82;83.34
77003;BME280;65939;50.060;14.288;2023-04-01T00:44:40;95593.84;;;8.77;83.92
77003;BME280;65939;50.060;14.288;2023-04-01T00:46:40;95594.56;;;8.71;83.99
77003;BME280;65939;50.060;14.288;2023-04-01T00:48:54;95597.75;;;8.67;84.06
77003;BME280;65939;50.060;14.288;2023-04-01T00:51:09;95598.13;;;8.63;84.36
77003;BME280;65939;50.060;14.288;2023-04-01T00:53:12;95584.66;;;8.60;84.76
77003;BME280;65939;50.060;14.288;2023-04-01T00:55:16;95594.28;;;8.59;84.50
77003;BME280;65939;50.060;14.288;2023-04-01T00:57:23;95588.47;;;8.57;84.37
77003;BME280;65939;50.060;14.288;2023-04-01T00:59:29;95588.63;;;8.56;84.58
77003;BME280;65939;50.060;14.288;2023-04-01T01:01:34;95582.84;;;8.54;84.44
77003;BME280;65939;50.060;14.288;2023-04-01T01:03:36;95573.59;;;8.51;84.28
77003;BME280;65939;50.060;14.288;2023-04-01T01:10:33;95588.56;;;8.49;84.66
77003;BME280;65939;50.060;14.288;2023-04-01T01:17:13;95584.16;;;8.50;84.47
77003;BME280;65939;50.060;14.288;2023-04-01T01:19:31;95590.19;;;8.50;85.22
77003;BME280;65939;50.060;14.288;2023-04-01T01:33:40;95587.63;;;8.57;84.75
77003;BME280;65939;50.060;14.288;2023-04-01T01:35:50;95590.25;;;8.57;85.27
77003;BME280;65939;50.060;14.288;2023-04-01T01:38:03;95595.44;;;8.57;84.66
77003;BME280;65939;50.060;14.288;2023-04-01T01:40:08;95596.06;;;8.59;84.96
77003;BME280;65939;50.060;14.288;2023-04-01T01:42:15;95591.88;;;8.58;85.79
77003;BME280;65939;50.060;14.288;2023-04-01T01:44:17;95595.88;;;8.60;85.39
77003;BME280;65939;50.060;14.288;2023-04-01T01:46:22;95590.06;;;8.58;85.57
77003;BME280;65939;50.060;14.288;2023-04-01T01:48:26;95594.47;;;8.58;86.09
77003;BME280;65939;50.060;14.288;2023-04-01T01:50:28;95588.47;;;8.57;85.17
77003;BME280;65939;50.060;14.288;2023-04-01T01:52:29;95593.66;;;8.57;86.11
77003;BME280;65939;50.060;14.288;2023-04-01T01:54:30;95590.25;;;8.57;85.81
77003;BME280;65939;50.060;14.288;2023-04-01T01:56:32;95590.25;;;8.57;85.97
77003;BME280;65939;50.060;14.288;2023-04-01T02:00:50;95592.84;;;8.57;85.84
77003;BME280;65939;50.060;14.288;2023-04-01T02:02:53;95583.81;;;8.53;86.61
77003;BME280;65939;50.060;14.288;2023-04-01T02:04:54;95595.84;;;8.54;86.51
77003;BME280;65939;50.060;14.288;2023-04-01T02:07:02;95589.81;;;8.53;86.36
77003;BME280;65939;50.060;14.288;2023-04-01T02:09:07;95595.00;;;8.53;86.00
77003;BME280;65939;50.060;14.288;2023-04-01T02:11:15;95590.00;;;8.52;86.37
77003;BME280;65939;50.060;14.288;2023-04-01T02:13:24;95584.16;;;8.50;86.42
77003;BME280;65939;50.060;14.288;2023-04-01T02:15:32;95585.34;;;8.47;86.83
77003;BME280;65939;50.060;14.288;2023-04-01T02:17:40;95583.72;;;8.46;86.29
77003;BME280;65939;50.060;14.288;2023-04-01T02:19:51;95582.13;;;8.45;87.25
77003;BME280;65939;50.060;14.288;2023-04-01T02:21:59;95585.72;;;8.44;86.47
77003;BME280;65939;50.060;14.288;2023-04-01T02:24:04;95580.69;;;8.43;87.28
77003;BME280;65939;50.060;14.288;2023-04-01T02:26:08;95583.50;;;8.41;86.48
77003;BME280;65939;50.060;14.288;2023-04-01T02:28:13;95587.25;;;8.38;87.38
77003;BME280;65939;50.060;14.288;2023-04-01T02:30:17;95586.44;;;8.38;87.15
77003;BME280;65939;50.060;14.288;2023-04-01T02:32:19;95589.06;;;8.38;87.58
77003;BME280;65939;50.060;14.288;2023-04-01T02:34:23;95594.25;;;8.38;86.95
77003;BME280;65939;50.060;14.288;2023-04-01T02:36:24;95594.25;;;8.38;87.87
77003;BME280;65939;50.060;14.288;2023-04-01T02:38:25;95590.00;;;8.37;87.03
77003;BME280;65939;50.060;14.288;2023-04-01T02:40:26;95596.06;;;8.37;86.81
77003;BME280;65939;50.060;14.288;2023-04-01T02:42:27;95596.84;;;8.38;87.82
77003;BME280;65939;50.060;14.288;2023-04-01T02:44:27;95606.44;;;8.37;87.63
77003;BME280;65939;50.060;14.288;2023-04-01T02:46:28;95599.28;;;8.39;87.69
77003;BME280;65939;50.060;14.288;2023-04-01T02:48:29;95601.69;;;8.41;87.59
77003;BME280;65939;50.060;14.288;2023-04-01T02:50:30;95608.31;;;8.44;86.78
77003;BME280;65939;50.060;14.288;2023-04-01T02:52:31;95596.94;;;8.45;87.06
77003;BME280;65939;50.060;14.288;2023-04-01T02:54:32;95604.38;;;8.48;87.18
77003;BME280;65939;50.060;14.288;2023-04-01T02:56:32;95609.38;;;8.49;86.40
77003;BME280;65939;50.060;14.288;2023-04-01T02:58:33;95618.81;;;8.50;86.56
77003;BME280;65939;50.060;14.288;2023-04-01T03:00:33;95610.59;;;8.53;87.29
77003;BME280;65939;50.060;14.288;2023-04-01T03:02:34;95614.84;;;8.54;86.60
77003;BME280;65939;50.060;14.288;2023-04-01T03:04:36;95619.03;;;8.55;86.92
77003;BME280;65939;50.060;14.288;2023-04-01T03:06:37;95613.66;;;8.57;86.29
77003;BME280;65939;50.060;14.288;2023-04-01T03:08:38;95622.28;;;8.57;86.41
77003;BME280;65939;50.060;14.288;2023-04-01T03:10:39;95629.09;;;8.58;86.01
77003;BME280;65939;50.060;14.288;2023-04-01T03:12:39;95611.88;;;8.57;86.35
77003;BME280;65939;50.060;14.288;2023-04-01T03:14:41;95617.88;;;8.58;85.88
77003;BME280;65939;50.060;14.288;2023-04-01T03:16:41;95623.69;;;8.60;86.14
77003;BME280;65939;50.060;14.288;2023-04-01T03:18:42;95631.13;;;8.63;86.02
77003;BME280;65939;50.060;14.288;2023-04-01T03:20:44;95625.75;;;8.65;85.86
77003;BME280;65939;50.060;14.288;2023-04-01T03:22:44;95618.91;;;8.63;85.87
77003;BME280;65939;50.060;14.288;2023-04-01T03:24:47;95618.13;;;8.63;85.74
77003;BME280;65939;50.060;14.288;2023-04-01T03:26:48;95630.31;;;8.62;85.48
77003;BME280;65939;50.060;14.288;2023-04-01T03:28:48;95629.97;;;8.66;85.69
77003;BME280;65939;50.060;14.288;2023-04-01T03:30:49;95617.94;;;8.65;85.59
77003;BME280;65939;50.060;14.288;2023-04-01T03:32:50;95627.16;;;8.67;85.34
77003;BME280;65939;50.060;14.288;2023-04-01T03:34:50;95621.78;;;8.69;84.94
77003;BME280;65939;50.060;14.288;2023-04-01T03:36:52;95625.00;;;8.71;85.30
77003;BME280;65939;50.060;14.288;2023-04-01T03:38:52;95626.00;;;8.70;85.37
77003;BME280;65939;50.060;14.288;2023-04-01T03:40:53;95628.41;;;8.71;84.85
77003;BME280;65939;50.060;14.288;2023-04-01T03:42:54;95630.19;;;8.71;85.28
77003;BME280;65939;50.060;14.288;2023-04-01T03:44:56;95631.84;;;8.72;84.69
77003;BME280;65939;50.060;14.288;2023-04-01T03:46:57;95635.03;;;8.74;84.34
77003;BME280;65939;50.060;14.288;2023-04-01T03:48:57;95639.25;;;8.75;85.07
77003;BME280;65939;50.060;14.288;2023-04-01T03:50:58;95640.06;;;8.75;84.54
77003;BME280;65939;50.060;14.288;2023-04-01T03:52:58;95646.88;;;8.76;84.36
77003;BME280;65939;50.060;14.288;2023-04-01T03:55:00;95641.84;;;8.75;84.26
77003;BME280;65939;50.060;14.288;2023-04-01T03:57:02;95651.28;;;8.76;84.19
77003;BME280;65939;50.060;14.288;2023-04-01T03:59:06;95649.28;;;8.78;84.42
77003;BME280;65939;50.060;14.288;2023-04-01T04:01:21;95652.88;;;8.77;84.21
77003;BME280;65939;50.060;14.288;2023-04-01T04:03:22;95652.25;;;8.75;83.93
77003;BME280;65939;50.060;14.288;2023-04-01T04:05:24;95656.66;;;8.74;84.01
77003;BME280;65939;50.060;14.288;2023-04-01T04:07:25;95648.41;;;8.71;83.92
77003;BME280;65939;50.060;14.288;2023-04-01T04:09:26;95661.63;;;8.69;83.96
77003;BME280;65939;50.060;14.288;2023-04-01T04:11:26;95653.97;;;8.68;84.81
77003;BME280;65939;50.060;14.288;2023-04-01T04:13:27;95653.97;;;8.68;84.40
77003;BME280;65939;50.060;14.288;2023-04-01T04:15:28;95657.56;;;8.67;84.05
77003;BME280;65939;50.060;14.288;2023-04-01T04:17:29;95659.38;;;8.66;83.90
77003;BME280;65939;50.060;14.288;2023-04-01T04:19:32;95664.78;;;8.65;84.83
77003;BME280;65939;50.060;14.288;2023-04-01T04:21:34;95663.34;;;8.62;84.36
77003;BME280;65939;50.060;14.288;2023-04-01T04:23:34;95665.94;;;8.62;83.88
77003;BME280;65939;50.060;14.288;2023-04-01T04:25:36;95663.50;;;8.60;84.02
77003;BME280;65939;50.060;14.288;2023-04-01T04:27:36;95662.72;;;8.60;84.98
77003;BME280;65939;50.060;14.288;2023-04-01T04:29:37;95661.09;;;8.59;84.61
77003;BME280;65939;50.060;14.288;2023-04-01T04:31:38;95664.69;;;8.58;84.45
77003;BME280;65939;50.060;14.288;2023-04-01T04:33:38;95657.06;;;8.56;84.54
77003;BME280;65939;50.060;14.288;2023-04-01T04:35:39;95663.25;;;8.55;84.17
77003;BME280;65939;50.060;14.288;2023-04-01T04:37:40;95673.66;;;8.55;84.31
77003;BME280;65939;50.060;14.288;2023-04-01T04:39:40;95669.25;;;8.56;84.54
77003;BME280;65939;50.060;14.288;2023-04-01T04:41:41;95673.47;;;8.57;84.40
77003;BME280;65939;50.060;14.288;2023-04-01T04:43:42;95670.72;;;8.58;85.15
77003;BME280;65939;50.060;14.288;2023-04-01T04:45:44;95678.16;;;8.61;84.26
77003;BME280;65939;50.060;14.288;2023-04-01T04:47:45;95673.56;;;8.63;84.68
77003;BME280;65939;50.060;14.288;2023-04-01T04:49:45;95672.59;;;8.65;84.73
77003;BME280;65939;50.060;14.288;2023-04-01T04:51:46;95675.19;;;8.65;84.18
77003;BME280;65939;50.060;14.288;2023-04-01T04:53:47;95677.16;;;8.62;83.76
77003;BME280;65939;50.060;14.288;2023-04-01T04:55:49;95681.72;;;8.60;84.74
77003;BME280;65939;50.060;14.288;2023-04-01T04:57:50;95672.94;;;8.61;84.72
77003;BME280;65939;50.060;14.288;2023-04-01T04:59:51;95674.53;;;8.62;84.72
77003;BME280;65939;50.060;14.288;2023-04-01T05:01:51;95678.75;;;8.63;84.58
77003;BME280;65939;50.060;14.288;2023-04-01T05:03:52;95679.56;;;8.64;84.53
77003;BME280;65939;50.060;14.288;2023-04-01T05:05:53;95684.75;;;8.64;84.68
77003;BME280;65939;50.060;14.288;2023-04-01T05:07:54;95683.59;;;8.67;83.87
77003;BME280;65939;50.060;14.288;2023-04-01T05:09:55;95685.41;;;8.66;84.37
77003;BME280;65939;50.060;14.288;2023-04-01T05:11:55;95689.78;;;8.66;84.10
77003;BME280;65939;50.060;14.288;2023-04-01T05:13:56;95689.97;;;8.64;84.29
77003;BME280;65939;50.060;14.288;2023-04-01T05:15:56;95692.41;;;8.66;84.31
77003;BME280;65939;50.060;14.288;2023-04-01T05:17:58;95698.41;;;8.66;83.96
77003;BME280;65939;50.060;14.288;2023-04-01T05:19:59;95694.63;;;8.69;83.70
77003;BME280;65939;50.060;14.288;2023-04-01T05:21:59;95693.00;;;8.68;84.53
77003;BME280;65939;50.060;14.288;2023-04-01T05:24:00;95694.63;;;8.69;84.16
77003;BME280;65939;50.060;14.288;2023-04-01T05:26:10;95700.28;;;8.72;83.83
77003;BME280;65939;50.060;14.288;2023-04-01T05:28:11;95701.53;;;8.76;84.08
77003;BME280;65939;50.060;14.288;2023-04-01T05:30:12;95699.34;;;8.80;84.34
77003;BME280;65939;50.060;14.288;2023-04-01T05:32:12;95699.16;;;8.81;84.06
77003;BME280;65939;50.060;14.288;2023-04-01T05:34:13;95700.59;;;8.84;83.85
77003;BME280;65939;50.060;14.288;2023-04-01T05:36:15;95697.00;;;8.85;83.58
77003;BME280;65939;50.060;14.288;2023-04-01T05:38:16;95689.81;;;8.87;83.69
77003;BME280;65939;50.060;14.288;2023-04-01T05:40:17;95700.03;;;8.88;84.03
77003;BME280;65939;50.060;14.288;2023-04-01T05:42:17;95698.88;;;8.91;83.58
77003;BME280;65939;50.060;14.288;2023-04-01T05:44:18;95693.47;;;8.93;83.75
77003;BME280;65939;50.060;14.288;2023-04-01T05:46:19;95693.09;;;8.96;83.12
77003;BME280;65939;50.060;14.288;2023-04-01T05:48:19;95694.53;;;8.98;83.37
77003;BME280;65939;50.060;14.288;2023-04-01T05:50:20;95701.56;;;8.98;83.83
77003;BME280;65939;50.060;14.288;2023-04-01T05:52:21;95697.94;;;8.99;83.78
77003;BME280;65939;50.060;14.288;2023-04-01T05:54:22;95701.00;;;9.02;83.41
77003;BME280;65939;50.060;14.288;2023-04-01T05:56:23;95707.63;;;9.05;83.65
77003;BME280;65939;50.060;14.288;2023-04-01T05:58:24;95704.66;;;9.08;83.34
77003;BME280;65939;50.060;14.288;2023-04-01T06:00:24;95708.31;;;9.14;82.95
77003;BME280;65939;50.060;14.288;2023-04-01T06:02:25;95705.34;;;9.17;82.87
77003;BME280;65939;50.060;14.288;2023-04-01T06:04:32;95708.38;;;9.20;82.43
77003;BME280;65939;50.060;14.288;2023-04-01T06:06:36;95714.44;;;9.27;82.29
77003;BME280;65939;50.060;14.288;2023-04-01T06:08:36;95707.88;;;9.31;82.00
77003;BME280;65939;50.060;14.288;2023-04-01T06:23:36;95694.78;;;9.74;81.15
77003;BME280;65939;50.060;14.288;2023-04-01T06:33:30;95708.75;;;10.23;79.13
77003;BME280;65939;50.060;14.288;2023-04-01T06:45:29;95726.91;;;10.38;79.63
77003;BME280;65939;50.060;14.288;2023-04-01T06:47:36;95721.09;;;10.42;79.37
77003;BME280;65939;50.060;14.288;2023-04-01T06:56:18;95732.75;;;10.40;78.50
77003;BME280;65939;50.060;14.288;2023-04-01T06:58:26;95732.94;;;10.38;78.72
77003;BME280;65939;50.060;14.288;2023-04-01T07:00:35;95730.13;;;10.40;78.14
77003;BME280;65939;50.060;14.288;2023-04-01T07:02:45;95725.31;;;10.37;78.08
77003;BME280;65939;50.060;14.288;2023-04-01T07:04:53;95734.31;;;10.34;77.98
77003;BME280;65939;50.060;14.288;2023-04-01T07:06:59;95736.53;;;10.37;78.26
77003;BME280;65939;50.060;14.288;2023-04-01T07:09:08;95735.91;;;10.35;77.83
77003;BME280;65939;50.060;14.288;2023-04-01T07:11:24;95731.28;;;10.30;77.44
77003;BME280;65939;50.060;14.288;2023-04-01T07:13:34;95736.75;;;10.36;77.86
77003;BME280;65939;50.060;14.288;2023-04-01T07:15:54;95731.53;;;10.42;77.98
77003;BME280;65939;50.060;14.288;2023-04-01T07:18:25;95734.81;;;10.51;77.98
77003;BME280;65939;50.060;14.288;2023-04-01T07:20:32;95731.63;;;10.55;77.37
77003;BME280;65939;50.060;14.288;2023-04-01T07:23:08;95732.88;;;10.66;78.04
77003;BME280;65939;50.060;14.288;2023-04-01T07:25:15;95736.34;;;10.80;77.64
77003;BME280;65939;50.060;14.288;2023-04-01T07:27:17;95739.00;;;10.93;77.06
77003;BME280;65939;50.060;14.288;2023-04-01T07:29:18;95733.81;;;11.07;77.82
77003;BME280;65939;50.060;14.288;2023-04-01T07:36:33;95742.91;;;11.17;75.89
77003;BME280;65939;50.060;14.288;2023-04-01T07:41:09;95729.44;;;11.14;75.19
77003;BME280;65939;50.060;14.288;2023-04-01T07:45:21;95747.94;;;11.25;75.51
77003;BME280;65939;50.060;14.288;2023-04-01T07:47:55;95742.91;;;11.37;75.11
77003;BME280;65939;50.060;14.288;2023-04-01T07:52:25;95744.53;;;11.45;74.43
77003;BME280;65939;50.060;14.288;2023-04-01T07:56:53;95750.16;;;11.48;74.79
77003;BME280;65939;50.060;14.288;2023-04-01T07:59:18;95749.59;;;11.60;74.14
77003;BME280;65939;50.060;14.288;2023-04-01T08:01:29;95753.22;;;11.72;73.69
77003;BME280;65939;50.060;14.288;2023-04-01T08:11:08;95764.31;;;12.01;72.76
77003;BME280;65939;50.060;14.288;2023-04-01T08:15:35;95758.47;;;12.12;72.41
77003;BME280;65939;50.060;14.288;2023-04-01T08:20:17;95767.50;;;12.16;71.79
77003;BME280;65939;50.060;14.288;2023-04-01T08:22:27;95776.38;;;12.15;71.99
77003;BME280;65939;50.060;14.288;2023-04-01T08:24:39;95760.66;;;12.21;71.93
77003;BME280;65939;50.060;14.288;2023-04-01T08:26:48;95759.25;;;12.19;71.51
77003;BME280;65939;50.060;14.288;2023-04-01T08:29:16;95758.63;;;12.23;72.02
77003;BME280;65939;50.060;14.288;2023-04-01T08:31:29;95766.28;;;12.32;71.92
77003;BME280;65939;50.060;14.288;2023-04-01T08:33:33;95767.72;;;12.28;70.56
77003;BME280;65939;50.060;14.288;2023-04-01T08:35:42;95765.28;;;12.26;71.15
77003;BME280;65939;50.060;14.288;2023-04-01T08:37:48;95764.72;;;12.24;70.21
77003;BME280;65939;50.060;14.288;2023-04-01T08:39:54;95765.69;;;12.23;69.73
77003;BME280;65939;50.060;14.288;2023-04-01T08:49:24;95760.06;;;12.26;69.60
77003;BME280;65939;50.060;14.288;2023-04-01T09:06:59;95759.50;;;12.82;67.92
77003;BME280;65939;50.060;14.288;2023-04-01T09:19:28;95769.94;;;12.96;67.20
77003;BME280;65939;50.060;14.288;2023-04-01T09:24:44;95776.75;;;13.03;67.86
77003;BME280;65939;50.060;14.288;2023-04-01T09:27:05;95772.72;;;13.07;66.57
77003;BME280;65939;50.060;14.288;2023-04-01T09:33:54;95779.56;;;13.02;66.88
77003;BME280;65939;50.060;14.288;2023-04-01T09:40:37;95779.88;;;13.32;66.93
77003;BME280;65939;50.060;14.288;2023-04-01T09:42:44;95792.34;;;13.36;66.92
77003;BME280;65939;50.060;14.288;2023-04-01T09:45:00;95780.19;;;13.49;67.50
77003;BME280;65939;50.060;14.288;2023-04-01T09:51:39;95784.09;;;13.71;65.92
77003;BME280;65939;50.060;14.288;2023-04-01T09:56:13;95789.06;;;13.79;65.77
77003;BME280;65939;50.060;14.288;2023-04-01T10:13:44;95800.63;;;13.72;64.30
77003;BME280;65939;50.060;14.288;2023-04-01T10:16:33;95801.84;;;13.69;64.21
77003;BME280;65939;50.060;14.288;2023-04-01T10:51:45;95790.41;;;13.88;63.78
77003;BME280;65939;50.060;14.288;2023-04-01T11:05:38;95795.06;;;13.86;64.63
77003;BME280;65939;50.060;14.288;2023-04-01T11:45:36;95794.41;;;14.84;60.95
77003;BME280;65939;50.060;14.288;2023-04-01T11:48:07;95798.22;;;14.70;61.45
77003;BME280;65939;50.060;14.288;2023-04-01T11:50:24;95792.34;;;14.68;62.15
77003;BME280;65939;50.060;14.288;2023-04-01T11:57:31;95791.25;;;14.57;62.37
77003;BME280;65939;50.060;14.288;2023-04-01T12:07:15;95794.63;;;14.65;61.50
77003;BME280;65939;50.060;14.288;2023-04-01T12:09:36;95794.06;;;14.63;61.51
77003;BME280;65939;50.060;14.288;2023-04-01T12:13:54;95792.34;;;14.50;61.25
77003;BME280;65939;50.060;14.288;2023-04-01T12:18:18;95803.97;;;14.60;63.00
77003;BME280;65939;50.060;14.288;2023-04-01T12:27:35;95806.34;;;14.37;62.04
77003;BME280;65939;50.060;14.288;2023-04-01T12:34:32;95802.56;;;14.58;61.96
77003;BME280;65939;50.060;14.288;2023-04-01T12:37:21;95804.69;;;14.68;61.95
77003;BME280;65939;50.060;14.288;2023-04-01T12:39:38;95802.66;;;14.70;61.40
77003;BME280;65939;50.060;14.288;2023-04-01T12:41:58;95807.97;;;14.63;61.60
77003;BME280;65939;50.060;14.288;2023-04-01T12:55:29;95807.28;;;14.49;61.80
77003;BME280;65939;50.060;14.288;2023-04-01T12:57:54;95808.94;;;14.44;62.49
77003;BME280;65939;50.060;14.288;2023-04-01T13:09:43;95809.94;;;14.68;62.74
77003;BME280;65939;50.060;14.288;2023-04-01T13:14:16;95812.06;;;14.96;62.72
77003;BME280;65939;50.060;14.288;2023-04-01T13:16:35;95807.63;;;14.96;61.12
77003;BME280;65939;50.060;14.288;2023-04-01T13:18:50;95809.75;;;14.88;60.86
77003;BME280;65939;50.060;14.288;2023-04-01T13:26:03;95802.59;;;14.76;60.60
77003;BME280;65939;50.060;14.288;2023-04-01T13:28:16;95802.41;;;14.53;60.52
77003;BME280;65939;50.060;14.288;2023-04-01T13:32:47;95803.69;;;14.44;61.09
77003;BME280;65939;50.060;14.288;2023-04-01T13:35:04;95805.13;;;14.40;62.04
77003;BME280;65939;50.060;14.288;2023-04-01T13:40:23;95800.31;;;14.11;61.42
77003;BME280;65939;50.060;14.288;2023-04-01T13:45:14;95804.97;;;13.84;62.43
77003;BME280;65939;50.060;14.288;2023-04-01T13:48:01;95809.22;;;13.85;63.30
77003;BME280;65939;50.060;14.288;2023-04-01T13:59:36;95795.13;;;14.55;62.00
77003;BME280;65939;50.060;14.288;2023-04-01T14:01:55;95806.69;;;14.47;61.83
77003;BME280;65939;50.060;14.288;2023-04-01T14:09:14;95805.00;;;14.09;61.43
77003;BME280;65939;50.060;14.288;2023-04-01T14:13:50;95804.38;;;13.82;61.73
77003;BME280;65939;50.060;14.288;2023-04-01T14:16:08;95808.66;;;13.77;63.34
77003;BME280;65939;50.060;14.288;2023-04-01T14:20:54;95809.13;;;13.67;63.80
77003;BME280;65939;50.060;14.288;2023-04-01T14:35:41;95817.91;;;13.48;66.06
77003;BME280;65939;50.060;14.288;2023-04-01T14:40:28;95820.50;;;13.54;65.91
77003;BME280;65939;50.060;14.288;2023-04-01T14:49:43;95830.16;;;13.60;64.98
77003;BME280;65939;50.060;14.288;2023-04-01T14:51:47;95829.75;;;13.57;64.89
77003;BME280;65939;50.060;14.288;2023-04-01T14:56:02;95823.69;;;13.63;65.66
77003;BME280;65939;50.060;14.288;2023-04-01T14:58:15;95830.66;;;13.76;65.78
77003;BME280;65939;50.060;14.288;2023-04-01T15:00:19;95828.00;;;13.82;65.61
77003;BME280;65939;50.060;14.288;2023-04-01T15:11:14;95831.63;;;13.81;64.40
77003;BME280;65939;50.060;14.288;2023-04-01T15:15:19;95842.00;;;13.70;64.19
77003;BME280;65939;50.060;14.288;2023-04-01T15:20:01;95837.56;;;13.70;65.55
77003;BME280;65939;50.060;14.288;2023-04-01T15:24:21;95846.19;;;13.77;64.87
77003;BME280;65939;50.060;14.288;2023-04-01T15:29:06;95845.09;;;13.60;65.82
77003;BME280;65939;50.060;14.288;2023-04-01T15:48:06;95849.13;;;12.98;68.43
77003;BME280;65939;50.060;14.288;2023-04-01T15:53:08;95848.75;;;12.87;67.65
77003;BME280;65939;50.060;14.288;2023-04-01T15:55:31;95857.22;;;12.89;67.12
77003;BME280;65939;50.060;14.288;2023-04-01T16:00:47;95871.50;;;12.87;67.88
77003;BME280;65939;50.060;14.288;2023-04-01T16:03:17;95856.41;;;12.82;68.22
77003;BME280;65939;50.060;14.288;2023-04-01T16:10:17;95874.19;;;12.67;68.37
77003;BME280;65939;50.060;14.288;2023-04-01T16:14:44;95876.59;;;12.49;68.75
77003;BME280;65939;50.060;14.288;2023-04-01T16:23:57;95874.59;;;12.37;68.03
77003;BME280;65939;50.060;14.288;2023-04-01T16:26:16;95883.66;;;12.28;68.77
77003;BME280;65939;50.060;14.288;2023-04-01T16:30:40;95887.84;;;12.16;69.34
77003;BME280;65939;50.060;14.288;2023-04-01T16:40:47;95905.69;;;11.79;71.27
77003;BME280;65939;50.060;14.288;2023-04-01T16:42:34;95907.66;;;11.77;70.76
77003;BME280;65939;50.060;14.288;2023-04-01T16:45:08;95908.47;;;11.71;70.49
77003;BME280;65939;50.060;14.288;2023-04-01T16:47:22;95914.06;;;11.61;71.27
77003;BME280;65939;50.060;14.288;2023-04-01T16:49:32;95911.84;;;11.58;71.47
77003;BME280;65939;50.060;14.288;2023-04-01T16:56:22;95915.81;;;11.47;71.53
77003;BME280;65939;50.060;14.288;2023-04-01T17:00:30;95926.84;;;11.36;72.34
77003;BME280;65939;50.060;14.288;2023-04-01T17:02:47;95922.81;;;11.34;72.71
77003;BME280;65939;50.060;14.288;2023-04-01T17:05:11;95928.78;;;11.27;73.36
77003;BME280;65939;50.060;14.288;2023-04-01T17:11:53;95932.69;;;11.03;73.54
77003;BME280;65939;50.060;14.288;2023-04-01T17:16:46;95936.03;;;10.91;74.44
77003;BME280;65939;50.060;14.288;2023-04-01T17:27:51;95950.13;;;10.68;76.51
77003;BME280;65939;50.060;14.288;2023-04-01T17:39:44;95955.00;;;10.50;77.97
77003;BME280;65939;50.060;14.288;2023-04-01T17:48:57;95969.97;;;10.41;78.68
77003;BME280;65939;50.060;14.288;2023-04-01T17:51:41;95971.53;;;10.36;78.58
77003;BME280;65939;50.060;14.288;2023-04-01T17:58:50;95978.84;;;10.25;78.75
77003;BME280;65939;50.060;14.288;2023-04-01T18:03:25;95987.03;;;10.22;78.45
77003;BME280;65939;50.060;14.288;2023-04-01T18:06:00;95982.16;;;10.19;78.49
77003;BME280;65939;50.060;14.288;2023-04-01T18:08:42;95981.53;;;10.17;78.51
77003;BME280;65939;50.060;14.288;2023-04-01T18:15:15;95995.78;;;10.15;78.85
77003;BME280;65939;50.060;14.288;2023-04-01T18:17:43;95999.34;;;10.14;79.12
77003;BME280;65939;50.060;14.288;2023-04-01T18:20:15;96009.19;;;10.12;79.00
77003;BME280;65939;50.060;14.288;2023-04-01T18:22:26;96007.75;;;10.09;79.11
77003;BME280;65939;50.060;14.288;2023-04-01T18:24:41;96012.94;;;10.09;79.44
77003;BME280;65939;50.060;14.288;2023-04-01T18:27:00;96009.75;;;10.07;79.23
77003;BME280;65939;50.060;14.288;2023-04-01T18:29:27;96017.72;;;10.05;79.83
77003;BME280;65939;50.060;14.288;2023-04-01T18:31:37;96016.28;;;10.03;79.67
77003;BME280;65939;50.060;14.288;2023-04-01T18:38:37;96017.22;;;9.95;80.25
77003;BME280;65939;50.060;14.288;2023-04-01T18:43:02;96028.19;;;9.91;81.04
77003;BME280;65939;50.060;14.288;2023-04-01T18:45:31;96031.00;;;9.89;81.41
77003;BME280;65939;50.060;14.288;2023-04-01T18:52:04;96031.16;;;9.88;81.41
77003;BME280;65939;50.060;14.288;2023-04-01T18:54:41;96037.19;;;9.88;81.37
77003;BME280;65939;50.060;14.288;2023-04-01T18:56:41;96037.97;;;9.89;81.54
77003;BME280;65939;50.060;14.288;2023-04-01T18:58:59;96043.03;;;9.90;81.89
77003;BME280;65939;50.060;14.288;2023-04-01T19:05:39;96049.50;;;9.94;81.27
77003;BME280;65939;50.060;14.288;2023-04-01T19:07:52;96049.84;;;9.91;81.70
77003;BME280;65939;50.060;14.288;2023-04-01T19:09:53;96044.84;;;9.90;82.02